Terminal Aerodrome Forecast
Issued by NWS

Home | Current Version | Previous Version | Text Only | Print | Product List | Glossary On
Versions: 1 2 3 4 5 6 7 8 9 10 11 12 13
728
FTUS45 KPSR 280536
TAFIPL
TAF
KIPL 280536Z 2806/0106 VRB05KT P6SM -SHRA BKN090
     FM280800 VRB05KT P6SM BKN100
     FM281400 26008KT P6SM SCT150
     FM281700 28010G18KT P6SM FEW150
     FM282100 32008KT P6SM SKC=

USA.gov is the U.S. government's official web portal to all federal, state and local government web resources and services.